Terminal Aerodrome Forecast
Issued by NWS

Home | Current Version | Previous Version | Text Only | Print | Product List | Glossary On
Versions: 1 2 3 4 5 6 7 8 9 10 11 12 13
000
FTUS45 KFGZ 270300 AAA
TAFPRC
TAF AMD
KPRC 270331Z 2704/2724 VRB04KT P6SM VCSH FEW050 BKN070
      TEMPO 2705/2709 5SM -SHRA BKN035 OVC045
     FM270900 VRB06KT 5SM -SHRA BR OVC025
     FM271800 VRB05KT P6SM OVC030=

USA.gov is the U.S. government's official web portal to all federal, state and local government web resources and services.